createdAt,value
2023-01-13T00:04:41.657Z,0.95
2023-01-13T00:09:43.106Z,2.00
2023-01-13T00:14:44.549Z,0.77
2023-01-13T00:19:46.533Z,1.40
2023-01-13T00:24:48.042Z,0.82
2023-01-13T00:29:49.348Z,2.75
2023-01-13T00:34:50.882Z,1.80
2023-01-13T00:39:52.718Z,0.95
2023-01-13T00:44:54.130Z,0.93
2023-01-13T00:49:55.563Z,1.40
2023-01-13T00:54:57.015Z,0.98
2023-01-13T00:59:58.388Z,4.68
2023-01-13T01:05:00.881Z,2.65
2023-01-13T01:10:02.738Z,0.90
2023-01-13T01:15:06.087Z,0.68
2023-01-13T01:20:08.172Z,1.25
2023-01-13T01:25:09.730Z,0.93
2023-01-13T01:30:11.621Z,0.63
2023-01-13T01:35:13.115Z,2.20
2023-01-13T01:40:14.517Z,1.50
2023-01-13T01:45:24.004Z,1.15
2023-01-13T01:50:26.549Z,1.30
2023-01-13T01:55:32.907Z,0.40
2023-01-13T02:00:34.567Z,1.05
2023-01-13T02:05:36.636Z,0.75
2023-01-13T02:10:39.802Z,1.35
2023-01-13T02:15:48.520Z,1.10
2023-01-13T02:21:08.479Z,1.60
2023-01-13T02:26:31.841Z,0.68
2023-01-13T02:31:42.750Z,2.30
2023-01-13T02:36:52.132Z,2.13
2023-01-13T02:42:23.768Z,1.00
2023-01-13T02:47:27.584Z,0.30
2023-01-13T02:52:38.269Z,1.10
2023-01-13T02:57:41.180Z,0.45
2023-01-13T03:02:42.922Z,2.05
2023-01-13T03:07:57.508Z,0.20
2023-01-13T03:13:12.653Z,0.22
2023-01-13T03:18:19.301Z,0.73
2023-01-13T03:23:58.967Z,0.40
2023-01-13T03:29:15.030Z,0.40
2023-01-13T03:34:22.498Z,0.43
2023-01-13T03:39:35.201Z,1.20
2023-01-13T03:44:56.739Z,0.20
2023-01-13T03:50:06.438Z,0.88
2023-01-13T03:55:12.984Z,0.50
2023-01-13T04:00:15.736Z,1.65
2023-01-13T04:05:18.441Z,0.40
2023-01-13T04:10:31.398Z,1.20
2023-01-13T04:15:36.643Z,0.98
2023-01-13T04:20:39.899Z,1.40
2023-01-13T04:25:41.834Z,0.52
2023-01-13T04:30:43.928Z,0.22
2023-01-13T04:35:46.599Z,1.30
2023-01-13T04:40:48.068Z,0.22
2023-01-13T04:45:49.903Z,0.40
2023-01-13T04:50:51.370Z,1.20
2023-01-13T04:55:52.818Z,0.50
2023-01-13T05:00:55.459Z,0.57
2023-01-13T05:05:56.904Z,2.95
2023-01-13T05:11:01.415Z,0.10
2023-01-13T05:16:21.830Z,0.17
2023-01-13T05:21:58.849Z,0.10
2023-01-13T05:27:00.169Z,0.20
2023-01-13T05:32:02.573Z,0.63
2023-01-13T05:37:05.668Z,1.48
2023-01-13T05:42:26.765Z,1.75
2023-01-13T05:47:28.637Z,0.50
2023-01-13T05:52:30.018Z,2.28
2023-01-13T05:57:31.542Z,1.45
2023-01-13T06:02:33.117Z,0.98
2023-01-13T06:07:34.483Z,0.38
2023-01-13T06:12:37.030Z,0.50
2023-01-13T06:17:38.401Z,0.95
2023-01-13T06:22:46.742Z,0.38
2023-01-13T06:27:49.326Z,0.10
2023-01-13T06:32:55.326Z,0.75
2023-01-13T06:38:00.153Z,0.95
2023-01-13T06:43:16.621Z,2.40
2023-01-13T06:48:22.226Z,1.20
2023-01-13T06:53:23.671Z,0.85
2023-01-13T06:58:25.218Z,2.35
2023-01-13T07:03:26.603Z,2.60
2023-01-13T07:08:28.487Z,2.15
2023-01-13T07:13:48.391Z,1.75
2023-01-13T07:18:49.948Z,1.75
2023-01-13T07:23:51.397Z,1.48
2023-01-13T07:28:53.118Z,0.70
2023-01-13T07:33:54.556Z,2.13
2023-01-13T07:38:56.906Z,1.95
2023-01-13T07:43:58.476Z,2.55
2023-01-13T07:48:59.937Z,1.45
2023-01-13T07:54:01.301Z,2.30
2023-01-13T07:59:03.791Z,0.98
2023-01-13T08:04:05.242Z,1.38
2023-01-13T08:09:07.077Z,0.43
2023-01-13T08:14:08.486Z,1.80
2023-01-13T08:19:09.936Z,3.85
2023-01-13T08:24:11.382Z,2.10
2023-01-13T08:29:14.886Z,0.70
2023-01-13T08:34:16.565Z,5.53
2023-01-13T08:39:18.724Z,1.80
2023-01-13T08:44:20.331Z,1.13
2023-01-13T08:49:22.451Z,1.95
2023-01-13T08:54:23.820Z,0.75
2023-01-13T08:59:25.636Z,2.08
2023-01-13T09:04:28.501Z,3.40
2023-01-13T09:09:29.935Z,1.38
2023-01-13T09:14:34.368Z,2.20
2023-01-13T09:19:37.510Z,3.38
2023-01-13T09:24:38.970Z,2.90
2023-01-13T09:29:40.442Z,1.65
2023-01-13T09:35:00.515Z,1.40
2023-01-13T09:40:17.900Z,1.95
2023-01-13T09:45:28.277Z,4.05
2023-01-13T09:50:56.963Z,6.10
2023-01-13T09:55:58.845Z,2.92
2023-01-13T10:01:28.042Z,2.50
2023-01-13T10:06:38.793Z,2.47
2023-01-13T10:12:05.242Z,16.95
2023-01-13T10:17:22.329Z,3.08
2023-01-13T10:22:38.859Z,5.15
2023-01-13T10:27:40.785Z,6.10
2023-01-13T10:32:46.399Z,7.47
2023-01-13T10:37:57.079Z,3.45
2023-01-13T10:43:08.339Z,2.97
2023-01-13T10:48:17.158Z,3.90
2023-01-13T10:53:23.608Z,2.20
2023-01-13T10:58:26.213Z,3.88
2023-01-13T11:03:37.593Z,3.70
2023-01-13T11:08:45.367Z,4.18
2023-01-13T11:14:20.813Z,2.20
2023-01-13T11:19:27.822Z,2.75
2023-01-13T11:24:42.760Z,2.42
2023-01-13T11:29:53.303Z,4.13
2023-01-13T11:35:01.008Z,1.80
2023-01-13T11:40:25.767Z,3.15
2023-01-13T11:45:40.930Z,3.30
2023-01-13T11:50:51.255Z,3.65
2023-01-13T11:56:16.396Z,4.30
2023-01-13T12:01:27.575Z,3.67
2023-01-13T12:06:36.540Z,5.38
2023-01-13T12:12:18.907Z,5.90
2023-01-13T12:17:43.645Z,5.13
2023-01-13T12:22:47.871Z,3.40
2023-01-13T12:27:53.165Z,4.30
2023-01-13T12:33:03.188Z,3.50
2023-01-13T12:38:21.057Z,4.38
2023-01-13T12:43:42.824Z,5.10
2023-01-13T12:48:59.748Z,4.30
2023-01-13T12:54:03.336Z,3.08
2023-01-13T12:59:35.076Z,3.03
2023-01-13T13:04:56.909Z,3.27
2023-01-13T13:10:02.250Z,2.72
2023-01-13T13:15:05.036Z,6.53
2023-01-13T13:20:44.833Z,3.90
2023-01-13T13:26:26.562Z,6.32
2023-01-13T13:31:49.207Z,5.05
2023-01-13T13:37:12.041Z,4.38
2023-01-13T13:42:45.371Z,4.50
2023-01-13T13:47:48.474Z,4.55
2023-01-13T13:53:06.576Z,1.55
2023-01-13T13:58:18.174Z,2.55
2023-01-13T14:03:31.906Z,2.58
2023-01-13T14:08:36.496Z,3.77
2023-01-13T14:13:37.877Z,4.40
2023-01-13T14:18:47.472Z,12.63
2023-01-13T14:23:58.228Z,4.18
2023-01-13T14:29:02.447Z,4.45
2023-01-13T14:34:31.468Z,5.57
2023-01-13T14:39:39.677Z,4.13
2023-01-13T14:44:45.713Z,3.97
2023-01-13T14:49:54.890Z,2.78
2023-01-13T14:55:05.338Z,7.32
2023-01-13T15:00:16.131Z,4.15
2023-01-13T15:05:17.824Z,3.88
2023-01-13T15:10:26.821Z,5.03
2023-01-13T15:15:30.238Z,5.47
2023-01-13T15:20:31.622Z,4.15
2023-01-13T15:25:34.707Z,9.73
2023-01-13T15:30:36.096Z,4.38
2023-01-13T15:35:38.958Z,5.88
2023-01-13T15:40:41.337Z,3.80
2023-01-13T15:46:02.099Z,4.97
2023-01-13T15:51:04.052Z,5.30
2023-01-13T15:56:13.455Z,2.75
2023-01-13T16:01:14.979Z,6.00
2023-01-13T16:06:19.803Z,5.80
2023-01-13T16:11:21.118Z,4.82
2023-01-13T16:16:25.407Z,6.00
2023-01-13T16:21:26.987Z,3.97
2023-01-13T16:26:30.134Z,5.10
2023-01-13T16:31:33.542Z,8.05
2023-01-13T16:36:37.337Z,6.30
2023-01-13T16:41:38.786Z,3.90
2023-01-13T16:46:40.670Z,14.35
2023-01-13T16:51:42.426Z,3.75
2023-01-13T16:56:44.517Z,3.40
2023-01-13T17:01:46.434Z,3.97
2023-01-13T17:06:55.697Z,4.22
2023-01-13T17:11:58.062Z,5.15
2023-01-13T17:16:59.549Z,4.68
2023-01-13T17:22:00.942Z,5.57
2023-01-13T17:27:03.482Z,6.10
2023-01-13T17:32:05.269Z,7.15
2023-01-13T17:37:06.803Z,6.35
2023-01-13T17:42:08.352Z,7.50
2023-01-13T17:47:09.881Z,6.43
2023-01-13T17:52:11.427Z,8.00
2023-01-13T17:57:13.309Z,4.55
2023-01-13T18:02:15.040Z,5.75
2023-01-13T18:07:16.615Z,5.63
2023-01-13T18:12:18.007Z,3.72
2023-01-13T18:17:19.786Z,8.98
2023-01-13T18:22:40.175Z,3.42
2023-01-13T18:27:41.711Z,6.53
2023-01-13T18:32:43.535Z,4.90
2023-01-13T18:37:45.034Z,4.28
2023-01-13T18:42:54.020Z,8.18
2023-01-13T18:47:57.509Z,6.72
2023-01-13T18:52:58.935Z,5.32
2023-01-13T18:58:00.566Z,6.90
2023-01-13T19:08:07.667Z,8.98
2023-01-13T19:13:09.296Z,6.53
2023-01-13T19:18:10.858Z,7.32
2023-01-13T19:23:12.600Z,8.60
2023-01-13T19:28:14.929Z,7.70
2023-01-13T19:33:16.380Z,7.28
2023-01-13T19:38:17.699Z,9.00
2023-01-13T19:43:37.465Z,9.02
2023-01-13T19:48:39.916Z,8.65
2023-01-13T19:53:42.140Z,6.22
2023-01-13T19:58:50.434Z,6.57
2023-01-13T20:03:52.151Z,7.25
2023-01-13T20:08:53.501Z,8.35
2023-01-13T20:13:55.942Z,7.90
2023-01-13T20:18:57.372Z,7.32
2023-01-13T20:23:58.719Z,6.28
2023-01-13T20:29:00.140Z,6.28
2023-01-13T20:34:01.607Z,4.72
2023-01-13T20:39:05.109Z,4.75
2023-01-13T20:44:07.369Z,5.50
2023-01-13T20:49:12.503Z,7.18
2023-01-13T20:54:14.570Z,7.43
2023-01-13T20:59:16.596Z,7.05
2023-01-13T21:04:18.107Z,5.80
2023-01-13T21:09:19.618Z,6.00
2023-01-13T21:14:44.777Z,6.10
2023-01-13T21:19:46.560Z,7.10
2023-01-13T21:24:47.969Z,7.18
2023-01-13T21:29:50.381Z,4.38
2023-01-13T21:34:51.825Z,6.20
2023-01-13T21:39:53.150Z,6.65
2023-01-13T21:45:13.139Z,9.95
2023-01-13T21:50:22.029Z,8.15
2023-01-13T21:55:26.835Z,6.40
2023-01-13T22:05:32.029Z,4.53
2023-01-13T22:10:36.657Z,10.30
2023-01-13T22:15:38.167Z,8.23
2023-01-13T22:20:41.349Z,7.40
2023-01-13T22:25:42.794Z,7.55
2023-01-13T22:30:44.295Z,5.57
2023-01-13T22:35:45.825Z,11.45
2023-01-13T22:40:59.244Z,5.80
2023-01-13T22:46:06.229Z,4.80
2023-01-13T22:51:09.357Z,4.80
2023-01-13T22:56:19.048Z,5.03
2023-01-13T23:01:20.697Z,9.05
2023-01-13T23:06:24.925Z,11.07
2023-01-13T23:11:28.684Z,10.20
2023-01-13T23:16:32.359Z,5.43
2023-01-13T23:21:38.094Z,8.15
2023-01-13T23:26:39.572Z,8.05
2023-01-13T23:31:41.032Z,10.45
2023-01-13T23:36:44.190Z,8.05
2023-01-13T23:41:45.572Z,8.30
2023-01-13T23:46:47.011Z,8.82
2023-01-13T23:51:51.054Z,8.23
2023-01-13T23:56:52.754Z,10.50
